Time;durP1;ratioP1;P1;durP2;ratioP2;P2;SDS_P1;SDS_P2;PMS_P1;PMS_P2;Temp;Humidity;BMP_temperature;BMP_pressure;BME280_temperature;BME280_humidity;BME280_pressure;Samples;Min_cycle;Max_cycle;Signal;HPM_P1;HPM_P2
2024/01/15 00:02:23;;;;;;;15.32;2.85;;;1.60;99.90;;;;;;5110762;27;20115;-71
2024/01/15 00:04:49;;;;;;;19.33;3.15;;;1.60;99.90;;;;;;5133011;27;20055;-71
2024/01/15 00:07:14;;;;;;;13.85;2.75;;;1.60;99.90;;;;;;5130415;27;20046;-71
2024/01/15 00:09:40;;;;;;;13.95;3.08;;;1.60;99.90;;;;;;5107752;27;20039;-80
2024/01/15 00:12:06;;;;;;;13.80;2.95;;;1.70;99.90;;;;;;5139216;27;20388;-80
2024/01/15 00:14:32;;;;;;;20.58;3.65;;;1.60;99.90;;;;;;5107724;27;20050;-78
2024/01/15 00:16:58;;;;;;;18.13;3.75;;;1.60;99.90;;;;;;5113793;27;20501;-77
2024/01/15 00:19:24;;;;;;;16.17;3.30;;;1.60;99.90;;;;;;5121795;27;20123;-77
2024/01/15 00:21:50;;;;;;;14.68;3.10;;;1.60;99.90;;;;;;5116197;27;20401;-78
2024/01/15 00:24:16;;;;;;;16.65;3.72;;;1.70;99.90;;;;;;5100818;27;20085;-71
2024/01/15 00:26:42;;;;;;;14.52;3.10;;;1.60;99.90;;;;;;5122143;27;20039;-71
2024/01/15 00:29:08;;;;;;;14.75;2.90;;;1.60;99.90;;;;;;5134241;27;20288;-71
2024/01/15 00:31:35;;;;;;;13.68;2.65;;;1.60;99.90;;;;;;5122513;27;20042;-71
2024/01/15 00:34:00;;;;;;;13.60;3.35;;;1.60;99.90;;;;;;5141491;27;20053;-80
2024/01/15 00:36:26;;;;;;;14.23;2.70;;;1.70;99.90;;;;;;5117721;27;20042;-71
2024/01/15 00:38:53;;;;;;;18.73;2.85;;;1.70;99.90;;;;;;5131318;27;20043;-72
2024/01/15 00:41:18;;;;;;;15.00;3.10;;;1.70;99.90;;;;;;5125113;27;20039;-71
2024/01/15 00:43:45;;;;;;;13.95;2.63;;;1.70;99.90;;;;;;5111599;27;20060;-71
2024/01/15 00:46:11;;;;;;;20.25;3.17;;;1.70;99.90;;;;;;5134261;27;20046;-71
2024/01/15 00:48:37;;;;;;;14.88;2.88;;;1.80;99.90;;;;;;5148381;27;20043;-71
2024/01/15 00:51:04;;;;;;;14.35;3.05;;;1.80;99.90;;;;;;5126144;27;20042;-70
2024/01/15 00:53:30;;;;;;;15.65;3.13;;;1.90;99.90;;;;;;5121850;27;20604;-71
2024/01/15 00:55:56;;;;;;;15.75;2.80;;;1.90;99.90;;;;;;5131627;27;20050;-71
2024/01/15 00:58:22;;;;;;;17.17;3.25;;;1.90;99.90;;;;;;5110138;27;20034;-70
2024/01/15 01:00:48;;;;;;;14.02;2.78;;;2.00;99.90;;;;;;5128085;27;20129;-70
2024/01/15 01:03:14;;;;;;;18.17;3.35;;;2.00;99.90;;;;;;5108890;27;20042;-70
2024/01/15 01:05:40;;;;;;;15.55;3.38;;;2.10;99.90;;;;;;5120745;27;20512;-70
2024/01/15 01:08:05;;;;;;;14.27;2.40;;;2.10;99.90;;;;;;5119977;27;20045;-70
2024/01/15 01:10:31;;;;;;;10.13;2.85;;;2.10;99.90;;;;;;5122605;27;20133;-70
2024/01/15 01:12:57;;;;;;;19.83;3.10;;;2.20;99.90;;;;;;5132346;27;20042;-71
2024/01/15 01:15:24;;;;;;;16.55;3.20;;;2.20;99.90;;;;;;5112488;27;20088;-70
2024/01/15 01:17:50;;;;;;;22.50;3.92;;;2.20;99.90;;;;;;5120562;27;20039;-69
2024/01/15 01:20:16;;;;;;;19.30;3.47;;;2.20;99.90;;;;;;5123459;27;20680;-69
2024/01/15 01:22:42;;;;;;;19.35;3.28;;;2.10;99.90;;;;;;5144052;27;20065;-70
2024/01/15 01:25:08;;;;;;;17.65;3.10;;;2.10;99.90;;;;;;5119176;27;20038;-70
2024/01/15 01:27:35;;;;;;;24.52;3.90;;;2.10;99.90;;;;;;5123832;27;20051;-70
2024/01/15 01:30:01;;;;;;;17.15;3.15;;;2.10;99.90;;;;;;5126927;27;20438;-70
2024/01/15 01:32:30;;;;;;;20.67;3.78;;;2.10;99.90;;;;;;5106123;27;20118;-70
2024/01/15 01:34:56;;;;;;;15.75;2.75;;;2.10;99.90;;;;;;5131414;27;20026;-70
2024/01/15 01:37:21;;;;;;;13.60;2.80;;;2.00;99.90;;;;;;5134481;27;20058;-69
2024/01/15 01:39:47;;;;;;;12.15;2.03;;;2.00;99.90;;;;;;5128333;27;20039;-70
2024/01/15 01:42:13;;;;;;;9.93;1.67;;;2.00;99.90;;;;;;5127628;27;20460;-70
2024/01/15 01:44:39;;;;;;;9.75;1.60;;;2.00;99.90;;;;;;5110132;27;20058;-69
2024/01/15 01:47:06;;;;;;;5.43;1.55;;;2.00;99.90;;;;;;5110396;27;20035;-70
2024/01/15 01:49:32;;;;;;;10.90;1.10;;;2.00;99.90;;;;;;5128191;27;20047;-70
2024/01/15 01:52:01;;;;;;;6.18;0.95;;;1.90;99.90;;;;;;5127775;27;20366;-70
2024/01/15 01:54:32;;;;;;;6.13;1.45;;;1.90;99.90;;;;;;5109349;27;20050;-70
2024/01/15 01:56:59;;;;;;;9.00;1.33;;;2.00;99.90;;;;;;5128485;27;20515;-70
2024/01/15 01:59:27;;;;;;;7.57;1.00;;;1.90;99.90;;;;;;5124217;27;20042;-70
2024/01/15 02:01:54;;;;;;;4.00;0.70;;;1.90;99.90;;;;;;5111793;27;20392;-69
2024/01/15 02:04:23;;;;;;;8.93;1.20;;;1.80;99.90;;;;;;5128012;27;20050;-69
2024/01/15 02:06:49;;;;;;;7.22;1.33;;;1.80;99.90;;;;;;5124809;27;20054;-70
2024/01/15 02:09:15;;;;;;;5.65;1.02;;;1.80;99.90;;;;;;5119787;27;20222;-69
2024/01/15 02:11:42;;;;;;;11.18;1.52;;;1.70;99.90;;;;;;5127652;27;20233;-69
2024/01/15 02:14:09;;;;;;;9.98;1.60;;;1.70;99.90;;;;;;5129342;27;20401;-69
2024/01/15 02:16:35;;;;;;;9.85;2.28;;;1.70;99.90;;;;;;5129843;27;20261;-69
2024/01/15 02:19:01;;;;;;;17.98;2.00;;;1.70;99.90;;;;;;5122035;27;20050;-69
2024/01/15 02:21:28;;;;;;;9.75;2.05;;;1.60;99.90;;;;;;5118542;27;20054;-69
2024/01/15 02:23:55;;;;;;;14.63;2.50;;;1.60;99.90;;;;;;5122484;27;20496;-69
2024/01/15 02:26:21;;;;;;;10.85;2.33;;;1.60;99.90;;;;;;5105714;27;20050;-70
2024/01/15 02:28:48;;;;;;;16.45;2.10;;;1.70;99.90;;;;;;5116459;27;20415;-69
2024/01/15 02:31:14;;;;;;;16.13;2.10;;;1.60;99.90;;;;;;5114164;27;20185;-69
2024/01/15 02:33:41;;;;;;;15.25;2.70;;;1.60;99.90;;;;;;5107802;27;20054;-69
2024/01/15 02:36:07;;;;;;;14.05;2.50;;;1.70;99.90;;;;;;5117913;27;20569;-70
2024/01/15 02:38:33;;;;;;;16.30;3.30;;;1.70;99.90;;;;;;5115208;27;20064;-69
2024/01/15 02:41:02;;;;;;;17.33;2.50;;;1.70;99.90;;;;;;5127841;27;20036;-70
2024/01/15 02:43:27;;;;;;;14.32;2.63;;;1.60;99.90;;;;;;5123594;27;20107;-69
2024/01/15 02:45:53;;;;;;;12.30;2.83;;;1.70;99.90;;;;;;5128586;27;20059;-69
2024/01/15 02:48:19;;;;;;;16.60;2.88;;;1.70;99.90;;;;;;5116191;27;20041;-69
2024/01/15 02:50:45;;;;;;;13.90;3.03;;;1.70;99.90;;;;;;5112596;27;20047;-70
2024/01/15 02:53:10;;;;;;;13.95;2.40;;;1.80;99.90;;;;;;5115175;27;20034;-71
2024/01/15 02:55:36;;;;;;;18.48;3.22;;;1.80;99.90;;;;;;5104479;28;20421;-70
2024/01/15 02:58:03;;;;;;;18.83;2.95;;;1.90;99.90;;;;;;5121095;27;20043;-70
2024/01/15 03:00:28;;;;;;;14.70;2.88;;;1.90;99.90;;;;;;5113385;27;20510;-70
2024/01/15 03:02:55;;;;;;;18.65;2.78;;;1.90;99.90;;;;;;5113032;27;20516;-69
2024/01/15 03:05:21;;;;;;;14.90;2.90;;;1.90;99.90;;;;;;5108647;27;20043;-77
2024/01/15 03:07:47;;;;;;;16.08;3.13;;;1.90;99.90;;;;;;5108922;27;20329;-78
2024/01/15 03:10:13;;;;;;;14.00;2.67;;;2.00;99.90;;;;;;5107705;27;20038;-78
2024/01/15 03:12:39;;;;;;;15.45;2.47;;;1.90;99.90;;;;;;5129272;27;20055;-78
2024/01/15 03:15:05;;;;;;;19.17;4.07;;;1.90;99.90;;;;;;5125858;27;20038;-77
2024/01/15 03:17:31;;;;;;;16.92;3.35;;;1.90;99.90;;;;;;5117737;27;20190;-78
2024/01/15 03:19:56;;;;;;;16.10;3.30;;;1.90;99.90;;;;;;5128393;27;20573;-77
2024/01/15 03:22:22;;;;;;;20.67;3.65;;;1.90;99.90;;;;;;5131926;27;20042;-78
2024/01/15 03:24:48;;;;;;;18.17;3.25;;;1.90;99.90;;;;;;5120115;27;21350;-77
2024/01/15 03:27:14;;;;;;;15.93;3.45;;;1.90;99.90;;;;;;5114329;27;20035;-77
2024/01/15 03:29:41;;;;;;;20.02;3.20;;;1.90;99.90;;;;;;5139791;27;20042;-78
2024/01/15 03:32:07;;;;;;;13.32;3.15;;;1.90;99.90;;;;;;5116946;27;20103;-78
2024/01/15 03:34:32;;;;;;;21.55;3.08;;;1.90;99.90;;;;;;5117534;27;20500;-70
2024/01/15 03:36:59;;;;;;;17.20;3.75;;;2.00;99.90;;;;;;5117471;27;20050;-69
2024/01/15 03:39:25;;;;;;;15.25;3.28;;;1.90;99.90;;;;;;5128323;27;20279;-70
2024/01/15 03:41:51;;;;;;;17.38;3.15;;;2.00;99.90;;;;;;5130081;27;20035;-70
2024/01/15 03:44:17;;;;;;;17.83;2.50;;;2.10;99.90;;;;;;5124553;27;20484;-69
2024/01/15 03:46:42;;;;;;;11.70;3.13;;;2.10;99.90;;;;;;5117989;27;20062;-69
2024/01/15 03:49:08;;;;;;;18.77;2.83;;;2.10;99.90;;;;;;5127086;27;20482;-70
2024/01/15 03:51:34;;;;;;;17.83;2.63;;;2.00;99.90;;;;;;5131303;27;20051;-70
2024/01/15 03:54:00;;;;;;;11.98;1.85;;;2.00;99.90;;;;;;5130380;27;20130;-69
2024/01/15 03:56:28;;;;;;;17.08;2.83;;;2.10;99.90;;;;;;5130089;27;20038;-70
2024/01/15 03:58:53;;;;;;;17.05;3.22;;;2.10;99.90;;;;;;5119189;27;20034;-77
2024/01/15 04:01:19;;;;;;;17.45;2.97;;;2.10;99.90;;;;;;5136244;27;20122;-77
2024/01/15 04:03:45;;;;;;;17.27;2.20;;;2.00;99.90;;;;;;5123473;27;20210;-76
2024/01/15 04:06:11;;;;;;;11.25;2.13;;;2.00;99.90;;;;;;5124906;27;20035;-70
2024/01/15 04:08:36;;;;;;;17.52;2.63;;;2.00;99.90;;;;;;5115990;27;20054;-69
2024/01/15 04:11:02;;;;;;;17.50;2.40;;;1.90;99.90;;;;;;5130138;27;20030;-70
2024/01/15 04:13:28;;;;;;;11.43;2.25;;;1.90;99.90;;;;;;5127100;27;20386;-70
2024/01/15 04:15:54;;;;;;;14.80;2.13;;;1.90;99.90;;;;;;5121535;27;20463;-70
2024/01/15 04:18:20;;;;;;;12.95;2.05;;;1.90;99.90;;;;;;5112194;27;20081;-70
2024/01/15 04:20:45;;;;;;;15.25;2.50;;;1.90;99.90;;;;;;5103736;27;20051;-70
2024/01/15 04:23:11;;;;;;;15.35;2.38;;;1.90;99.90;;;;;;5131245;27;20042;-70
2024/01/15 04:25:37;;;;;;;11.32;1.83;;;1.90;99.90;;;;;;5128078;27;20137;-70
2024/01/15 04:28:03;;;;;;;16.23;2.40;;;1.90;99.90;;;;;;5124256;27;20485;-70
2024/01/15 04:30:31;;;;;;;15.88;2.72;;;1.90;99.90;;;;;;5103977;27;20380;-70
2024/01/15 04:32:58;;;;;;;16.52;3.00;;;1.90;99.90;;;;;;5125407;27;20523;-70
2024/01/15 04:35:24;;;;;;;21.48;3.42;;;1.90;99.90;;;;;;5125909;27;20042;-69
2024/01/15 04:37:50;;;;;;;12.93;2.65;;;1.90;99.90;;;;;;5110313;27;20047;-69
2024/01/15 04:40:15;;;;;;;16.42;2.88;;;2.00;99.90;;;;;;5131112;27;20043;-70
2024/01/15 04:42:41;;;;;;;17.15;3.53;;;2.00;99.90;;;;;;5130921;27;20042;-69
2024/01/15 04:45:07;;;;;;;16.60;2.80;;;2.00;99.90;;;;;;5117969;27;20121;-70
2024/01/15 04:47:33;;;;;;;11.45;2.88;;;2.00;99.90;;;;;;5132106;27;20579;-69
2024/01/15 04:49:59;;;;;;;13.40;2.88;;;2.10;99.90;;;;;;5123541;27;20049;-70
2024/01/15 04:52:28;;;;;;;18.63;3.65;;;2.10;99.90;;;;;;5128472;27;20038;-69
2024/01/15 04:54:53;;;;;;;12.18;2.70;;;2.10;99.90;;;;;;5117464;27;20038;-69
2024/01/15 04:57:19;;;;;;;16.02;2.92;;;2.00;99.90;;;;;;5135055;27;20438;-70
2024/01/15 04:59:45;;;;;;;16.55;3.88;;;2.00;99.90;;;;;;5133087;27;20073;-70
2024/01/15 05:02:11;;;;;;;11.15;2.25;;;2.00;99.90;;;;;;5129973;27;20030;-69
2024/01/15 05:04:36;;;;;;;21.30;3.10;;;2.00;99.90;;;;;;5125270;27;20179;-70
2024/01/15 05:07:02;;;;;;;13.27;2.80;;;2.00;99.90;;;;;;5132806;27;20054;-70
2024/01/15 05:09:28;;;;;;;15.18;2.75;;;1.90;99.90;;;;;;5112446;27;20132;-69
2024/01/15 05:11:54;;;;;;;9.10;2.60;;;1.90;99.90;;;;;;5150280;27;20560;-69
2024/01/15 05:14:20;;;;;;;17.13;2.83;;;1.80;99.90;;;;;;5124692;27;20035;-69
2024/01/15 05:16:49;;;;;;;11.85;2.35;;;1.90;99.90;;;;;;5115918;27;20137;-69
2024/01/15 05:19:16;;;;;;;10.63;2.53;;;1.80;99.90;;;;;;5129982;27;20118;-72
2024/01/15 05:21:42;;;;;;;15.73;2.88;;;1.70;99.90;;;;;;5120177;27;20304;-78
2024/01/15 05:24:08;;;;;;;17.60;2.95;;;1.70;99.90;;;;;;5125180;27;20043;-80
2024/01/15 05:26:34;;;;;;;16.65;2.65;;;1.60;99.90;;;;;;5112821;27;20430;-70
2024/01/15 05:29:00;;;;;;;18.30;2.95;;;1.60;99.90;;;;;;5110789;27;20059;-69
2024/01/15 05:31:26;;;;;;;16.17;2.75;;;1.60;99.90;;;;;;5129104;27;20489;-69
2024/01/15 05:33:52;;;;;;;13.25;2.38;;;1.60;99.90;;;;;;5153116;27;20095;-69
2024/01/15 05:36:17;;;;;;;14.50;2.70;;;1.60;99.90;;;;;;5130199;27;20035;-69
2024/01/15 05:38:43;;;;;;;15.30;2.83;;;1.60;99.90;;;;;;5111274;27;20030;-70
2024/01/15 05:41:09;;;;;;;16.03;3.00;;;1.70;99.90;;;;;;5121315;27;20043;-70
2024/01/15 05:43:34;;;;;;;15.52;2.38;;;1.70;99.90;;;;;;5118170;27;20046;-71
2024/01/15 05:46:00;;;;;;;19.90;3.50;;;1.70;99.90;;;;;;5115931;27;20388;-70
2024/01/15 05:48:26;;;;;;;18.70;3.17;;;1.60;99.90;;;;;;5115336;27;20939;-71
2024/01/15 05:50:51;;;;;;;18.40;2.78;;;1.60;99.90;;;;;;5109343;27;20027;-70
2024/01/15 05:53:17;;;;;;;18.83;3.28;;;1.50;99.90;;;;;;5130188;27;20031;-77
2024/01/15 05:55:43;;;;;;;13.82;2.83;;;1.50;99.90;;;;;;5130259;27;20039;-76
2024/01/15 05:58:09;;;;;;;20.05;2.80;;;1.50;99.90;;;;;;5125583;27;20054;-77
2024/01/15 06:00:35;;;;;;;18.20;2.92;;;1.50;99.90;;;;;;5126800;27;20596;-77
2024/01/15 06:03:01;;;;;;;17.60;3.20;;;1.40;99.90;;;;;;5127086;27;20042;-77
2024/01/15 06:05:27;;;;;;;18.38;3.30;;;1.40;99.90;;;;;;5105333;28;20049;-77
2024/01/15 06:07:53;;;;;;;17.95;3.08;;;1.40;99.90;;;;;;5128315;27;20041;-77
2024/01/15 06:10:19;;;;;;;16.77;3.05;;;1.40;99.90;;;;;;5104933;27;20054;-77
2024/01/15 06:12:44;;;;;;;21.63;3.63;;;1.40;99.90;;;;;;5108714;27;20121;-77
2024/01/15 06:15:10;;;;;;;15.77;2.92;;;1.40;99.90;;;;;;5124031;27;20119;-77
2024/01/15 06:17:37;;;;;;;20.88;3.72;;;1.40;99.90;;;;;;5117393;27;20405;-77
2024/01/15 06:20:03;;;;;;;16.85;3.22;;;1.30;99.90;;;;;;5121303;27;20114;-77
2024/01/15 06:22:29;;;;;;;17.95;3.10;;;1.30;99.90;;;;;;5116774;27;20366;-77
2024/01/15 06:24:55;;;;;;;20.30;3.10;;;1.30;99.90;;;;;;5108501;28;20035;-77
2024/01/15 06:27:24;;;;;;;19.57;3.30;;;1.40;99.90;;;;;;5127066;27;20294;-71
2024/01/15 06:29:50;;;;;;;15.32;2.95;;;1.40;99.90;;;;;;5129300;27;20106;-70
2024/01/15 06:32:16;;;;;;;22.73;3.45;;;1.30;99.90;;;;;;5113796;27;20180;-70
2024/01/15 06:34:41;;;;;;;16.20;2.45;;;1.30;99.90;;;;;;5121063;27;20042;-70
2024/01/15 06:37:07;;;;;;;17.37;3.73;;;1.30;99.90;;;;;;5126160;27;20043;-71
2024/01/15 06:39:33;;;;;;;16.73;2.88;;;1.30;99.90;;;;;;5127763;27;20054;-71
2024/01/15 06:41:59;;;;;;;15.43;2.80;;;1.30;99.90;;;;;;5124726;27;20492;-70
2024/01/15 06:44:24;;;;;;;16.60;2.45;;;1.20;99.90;;;;;;5122435;27;21014;-70
2024/01/15 06:46:51;;;;;;;18.88;3.55;;;1.20;99.90;;;;;;5122834;27;20042;-70
2024/01/15 06:49:17;;;;;;;19.50;3.15;;;1.20;99.90;;;;;;5123837;27;20524;-70
2024/01/15 06:51:43;;;;;;;16.90;3.65;;;1.20;99.90;;;;;;5111663;27;20054;-70
2024/01/15 06:54:09;;;;;;;16.40;3.05;;;1.20;99.90;;;;;;5126337;27;20127;-71
2024/01/15 06:56:37;;;;;;;14.65;2.38;;;1.30;99.90;;;;;;5119316;27;20054;-71
2024/01/15 06:59:03;;;;;;;17.17;3.08;;;1.20;99.90;;;;;;5121520;27;20126;-71
2024/01/15 07:01:29;;;;;;;19.20;3.40;;;1.20;99.90;;;;;;5120574;27;20444;-72
2024/01/15 07:03:55;;;;;;;15.70;2.63;;;1.20;99.90;;;;;;5128481;27;20500;-71
2024/01/15 07:06:24;;;;;;;18.80;3.08;;;1.20;99.90;;;;;;5118543;27;20031;-71
2024/01/15 07:08:50;;;;;;;16.92;3.38;;;1.20;99.90;;;;;;5119641;27;20035;-71
2024/01/15 07:11:15;;;;;;;24.40;3.78;;;1.20;99.90;;;;;;5122038;27;20095;-71
2024/01/15 07:13:41;;;;;;;16.05;2.83;;;1.20;99.90;;;;;;5108685;27;20396;-71
2024/01/15 07:16:07;;;;;;;22.92;3.80;;;1.20;99.90;;;;;;5124160;27;20042;-71
2024/01/15 07:18:33;;;;;;;23.35;4.10;;;1.20;99.90;;;;;;5112926;27;20043;-71
2024/01/15 07:20:59;;;;;;;21.92;4.13;;;1.20;99.90;;;;;;5120431;27;20181;-71
2024/01/15 07:23:25;;;;;;;21.15;3.60;;;1.20;99.90;;;;;;5109711;27;20027;-71
2024/01/15 07:25:53;;;;;;;23.13;3.38;;;1.20;99.90;;;;;;5117755;27;20393;-71
2024/01/15 07:28:19;;;;;;;16.17;2.67;;;1.30;99.90;;;;;;5120678;27;20066;-72
2024/01/15 07:30:45;;;;;;;16.40;2.40;;;1.10;99.90;;;;;;5120114;27;20394;-71
2024/01/15 07:33:12;;;;;;;14.50;2.53;;;1.10;99.90;;;;;;5125653;27;20039;-71
2024/01/15 07:35:38;;;;;;;13.38;2.70;;;1.20;99.90;;;;;;5119184;27;20605;-71
2024/01/15 07:38:03;;;;;;;19.10;2.60;;;1.10;99.90;;;;;;5120649;27;20118;-71
2024/01/15 07:40:29;;;;;;;15.35;2.55;;;1.10;99.90;;;;;;5120371;27;20130;-71
2024/01/15 07:42:55;;;;;;;14.23;3.03;;;1.10;99.90;;;;;;5118236;27;20046;-71
2024/01/15 07:45:21;;;;;;;20.42;4.10;;;1.10;99.90;;;;;;5098079;27;20046;-71
2024/01/15 07:47:47;;;;;;;16.13;4.07;;;1.10;99.90;;;;;;5125279;27;20298;-71
2024/01/15 07:50:12;;;;;;;17.58;3.10;;;1.10;99.90;;;;;;5130231;27;20035;-71
2024/01/15 07:52:41;;;;;;;16.90;3.30;;;1.00;99.90;;;;;;5103913;27;20402;-71
2024/01/15 07:55:07;;;;;;;22.77;3.67;;;1.00;99.90;;;;;;5098190;27;20116;-71
2024/01/15 07:57:33;;;;;;;21.05;3.20;;;1.10;99.90;;;;;;5127814;27;20046;-73
2024/01/15 07:59:59;;;;;;;22.70;3.55;;;1.10;99.90;;;;;;5123082;27;20042;-71
2024/01/15 08:02:25;;;;;;;20.00;3.60;;;1.10;99.90;;;;;;5122940;27;20095;-71
2024/01/15 08:04:51;;;;;;;16.65;3.53;;;1.20;99.90;;;;;;5117920;27;20043;-71
2024/01/15 08:07:17;;;;;;;17.00;3.22;;;1.10;99.90;;;;;;5117825;27;20096;-71
2024/01/15 08:09:43;;;;;;;21.90;3.00;;;1.10;99.90;;;;;;5118799;27;20446;-71
2024/01/15 08:12:09;;;;;;;15.55;3.17;;;1.10;99.90;;;;;;5121130;27;20148;-70
2024/01/15 08:14:35;;;;;;;19.50;3.73;;;1.10;99.90;;;;;;5123776;27;20057;-72
2024/01/15 08:17:01;;;;;;;21.88;3.97;;;1.10;99.90;;;;;;5122918;27;20401;-72
2024/01/15 08:19:27;;;;;;;20.33;3.17;;;1.10;99.90;;;;;;5116538;27;20042;-71
2024/01/15 08:21:53;;;;;;;20.23;3.53;;;1.10;99.90;;;;;;5125654;27;20039;-71
2024/01/15 08:24:19;;;;;;;19.70;3.25;;;1.10;99.90;;;;;;5114855;27;20497;-72
2024/01/15 08:26:45;;;;;;;19.83;3.05;;;1.10;99.90;;;;;;5106479;27;20100;-72
2024/01/15 08:29:11;;;;;;;18.20;3.00;;;1.10;99.90;;;;;;5101386;27;20084;-71
2024/01/15 08:31:36;;;;;;;14.30;2.95;;;1.10;99.90;;;;;;5129069;27;20375;-71
2024/01/15 08:34:02;;;;;;;20.10;3.90;;;1.10;99.90;;;;;;5119192;27;20165;-71
2024/01/15 08:36:31;;;;;;;17.73;3.60;;;1.20;99.90;;;;;;5119718;27;20035;-71
2024/01/15 08:38:56;;;;;;;22.13;3.00;;;1.20;99.90;;;;;;5105126;27;20042;-71
2024/01/15 08:41:23;;;;;;;19.30;3.72;;;1.20;99.90;;;;;;5109761;27;20046;-71
2024/01/15 08:43:49;;;;;;;15.02;3.30;;;1.20;99.90;;;;;;5113606;27;20409;-71
2024/01/15 08:46:14;;;;;;;13.98;3.05;;;1.20;99.90;;;;;;5112933;27;20054;-70
2024/01/15 08:48:40;;;;;;;16.88;3.53;;;1.30;99.90;;;;;;5119540;27;20038;-70
2024/01/15 08:51:07;;;;;;;14.07;3.25;;;1.30;99.90;;;;;;5112044;27;20534;-71
2024/01/15 08:53:36;;;;;;;16.67;3.42;;;1.30;99.90;;;;;;5119272;27;20051;-71
2024/01/15 08:56:02;;;;;;;17.17;3.60;;;1.30;99.90;;;;;;5115991;27;20077;-79
2024/01/15 08:58:28;;;;;;;14.37;3.23;;;1.30;99.90;;;;;;5122072;27;20059;-79
2024/01/15 09:00:54;;;;;;;16.50;3.40;;;1.30;99.90;;;;;;5107823;27;20043;-79
2024/01/15 09:03:20;;;;;;;15.25;3.30;;;1.30;99.90;;;;;;5124878;27;20046;-80
2024/01/15 09:05:45;;;;;;;15.57;3.60;;;1.50;99.90;;;;;;5115429;27;20079;-79
2024/01/15 09:08:11;;;;;;;15.20;3.13;;;1.40;99.90;;;;;;5116749;27;20095;-78
2024/01/15 09:10:37;;;;;;;17.70;3.35;;;1.50;99.90;;;;;;5116575;27;20543;-78
2024/01/15 09:13:04;;;;;;;16.25;3.72;;;1.50;99.90;;;;;;5120816;27;20095;-78
2024/01/15 09:15:30;;;;;;;18.75;3.45;;;1.60;99.90;;;;;;5121472;27;20121;-78
2024/01/15 09:17:58;;;;;;;17.42;4.15;;;1.60;99.90;;;;;;5104174;27;20137;-78
2024/01/15 09:20:25;;;;;;;14.88;3.08;;;1.60;99.90;;;;;;5119327;27;20538;-78
2024/01/15 09:22:51;;;;;;;15.80;3.17;;;1.60;99.90;;;;;;5123195;27;20126;-78
2024/01/15 09:25:17;;;;;;;14.57;3.28;;;1.70;99.90;;;;;;5097758;27;20121;-78
2024/01/15 09:27:43;;;;;;;14.23;3.17;;;1.70;99.90;;;;;;5121837;27;20051;-78
2024/01/15 09:30:09;;;;;;;18.02;3.30;;;1.70;99.90;;;;;;5096375;27;20062;-78
2024/01/15 09:32:35;;;;;;;16.02;2.55;;;1.70;99.90;;;;;;5109394;27;20126;-78
2024/01/15 09:35:01;;;;;;;15.55;3.10;;;1.70;99.90;;;;;;5120721;27;20150;-77
2024/01/15 09:37:27;;;;;;;20.73;3.42;;;1.80;99.90;;;;;;5118540;27;20042;-78
2024/01/15 09:39:53;;;;;;;19.63;3.53;;;1.80;99.90;;;;;;5113089;27;20035;-78
2024/01/15 09:42:20;;;;;;;14.23;3.28;;;1.80;99.90;;;;;;5122063;27;20047;-78
2024/01/15 09:44:46;;;;;;;16.27;3.15;;;1.80;99.90;;;;;;5119298;27;20058;-78
2024/01/15 09:47:12;;;;;;;13.70;3.53;;;1.80;99.90;;;;;;5108345;27;20035;-78
2024/01/15 09:49:40;;;;;;;12.07;2.78;;;1.80;99.90;;;;;;5120477;27;20133;-78
2024/01/15 09:52:07;;;;;;;19.52;3.55;;;1.90;99.90;;;;;;5116433;27;20057;-77
2024/01/15 09:54:33;;;;;;;11.65;2.65;;;1.90;99.90;;;;;;5125904;27;20045;-78
2024/01/15 09:57:00;;;;;;;14.65;2.38;;;2.00;99.90;;;;;;5123539;27;20442;-79
2024/01/15 09:59:28;;;;;;;12.98;2.55;;;2.00;99.90;;;;;;5122188;27;20519;-78
2024/01/15 10:01:55;;;;;;;14.35;2.97;;;2.10;99.90;;;;;;5118348;27;20050;-78
2024/01/15 10:04:21;;;;;;;16.50;3.28;;;2.10;99.90;;;;;;5120002;27;20485;-78
2024/01/15 10:06:50;;;;;;;14.32;2.55;;;2.10;99.90;;;;;;5121530;27;20047;-78
2024/01/15 10:09:17;;;;;;;14.10;2.80;;;2.10;99.90;;;;;;5119256;27;20361;-79
2024/01/15 10:11:44;;;;;;;17.20;3.00;;;2.10;99.90;;;;;;5123497;27;20998;-79
2024/01/15 10:14:13;;;;;;;12.07;2.50;;;2.10;99.90;;;;;;5121415;27;20516;-79
2024/01/15 10:16:42;;;;;;;12.98;2.58;;;2.10;99.90;;;;;;5116277;27;20120;-78
2024/01/15 10:19:09;;;;;;;13.25;2.95;;;2.10;99.90;;;;;;5109594;27;20035;-78
2024/01/15 10:21:35;;;;;;;13.55;2.47;;;2.20;99.90;;;;;;5118500;27;20071;-78
2024/01/15 10:24:04;;;;;;;11.90;2.17;;;2.30;99.90;;;;;;5096651;27;20039;-78
2024/01/15 10:26:31;;;;;;;11.77;2.25;;;2.30;99.90;;;;;;5111945;27;20050;-77
2024/01/15 10:29:01;;;;;;;11.55;2.75;;;2.40;99.90;;;;;;5141943;27;20045;-70
2024/01/15 10:31:28;;;;;;;9.85;1.95;;;2.40;99.90;;;;;;5132466;27;20492;-71
2024/01/15 10:33:54;;;;;;;11.73;2.13;;;2.40;99.90;;;;;;5123210;27;20045;-71
2024/01/15 10:36:20;;;;;;;16.25;2.58;;;2.40;99.90;;;;;;5112680;27;20057;-71
2024/01/15 10:38:47;;;;;;;10.07;2.35;;;2.50;99.90;;;;;;5120555;27;20129;-71
2024/01/15 10:41:12;;;;;;;12.70;2.13;;;2.60;99.90;;;;;;5124968;27;20071;-71
2024/01/15 10:43:41;;;;;;;9.43;1.80;;;2.70;99.90;;;;;;5119173;27;20035;-70
2024/01/15 10:46:07;;;;;;;10.02;1.92;;;2.70;99.90;;;;;;5115226;27;20381;-71
2024/01/15 10:48:35;;;;;;;11.38;2.30;;;2.70;99.90;;;;;;5125614;27;20139;-70
2024/01/15 10:51:03;;;;;;;11.23;2.40;;;2.70;99.90;;;;;;5120977;27;20043;-70
2024/01/15 10:53:31;;;;;;;11.02;2.17;;;2.70;99.90;;;;;;5105379;27;20046;-70
2024/01/15 10:55:58;;;;;;;10.00;2.20;;;2.70;99.90;;;;;;5117008;27;20481;-70
2024/01/15 10:58:27;;;;;;;8.40;1.90;;;2.70;99.90;;;;;;5118625;27;20043;-73
2024/01/15 11:00:54;;;;;;;10.05;1.90;;;2.70;99.90;;;;;;5112077;27;20412;-70
2024/01/15 11:03:20;;;;;;;7.30;1.45;;;2.80;99.90;;;;;;5110211;27;20046;-70
2024/01/15 11:05:46;;;;;;;4.80;1.70;;;2.80;99.90;;;;;;5123379;27;20221;-71
2024/01/15 11:08:16;;;;;;;6.05;1.40;;;2.80;99.90;;;;;;5126252;27;20046;-70
2024/01/15 11:10:51;;;;;;;6.38;1.10;;;2.80;99.90;;;;;;5113166;27;20039;-70
2024/01/15 11:13:22;;;;;;;4.50;0.85;;;2.90;99.90;;;;;;5120263;27;20050;-70
2024/01/15 11:16:02;;;;;;;6.80;1.33;;;2.80;99.90;;;;;;5124347;27;20130;-70
2024/01/15 11:18:35;;;;;;;7.32;1.40;;;2.90;99.90;;;;;;5128165;27;20261;-71
2024/01/15 11:21:16;;;;;;;6.35;1.17;;;2.80;99.90;;;;;;5129451;27;20038;-71
2024/01/15 11:23:49;;;;;;;7.00;1.73;;;2.80;99.90;;;;;;5110688;27;20095;-80
2024/01/15 11:26:46;;;;;;;12.43;1.63;;;2.80;99.90;;;;;;5122378;27;20049;-80
2024/01/15 11:29:41;;;;;;;5.90;1.10;;;2.90;99.90;;;;;;5122787;27;20042;-79
2024/01/15 11:32:08;;;;;;;7.65;1.48;;;2.80;99.90;;;;;;5121752;27;20050;-80
2024/01/15 11:34:50;;;;;;;8.13;1.52;;;2.80;99.90;;;;;;5113780;27;20042;-80
2024/01/15 11:37:16;;;;;;;6.32;1.55;;;2.80;99.90;;;;;;5112640;27;20050;-81
2024/01/15 11:39:48;;;;;;;6.22;1.40;;;2.80;99.90;;;;;;5112276;27;20484;-80
2024/01/15 11:42:15;;;;;;;9.88;1.73;;;2.80;99.90;;;;;;5106899;27;20131;-80
2024/01/15 11:44:41;;;;;;;9.30;1.73;;;2.80;99.90;;;;;;5116851;27;20038;-80
2024/01/15 11:47:12;;;;;;;7.45;1.63;;;2.70;99.90;;;;;;5111607;27;20484;-79
2024/01/15 11:49:57;;;;;;;13.00;1.88;;;2.70;99.90;;;;;;5130186;27;20405;-78
2024/01/15 11:52:23;;;;;;;10.32;1.77;;;2.60;99.90;;;;;;5129145;27;20076;-80
2024/01/15 11:55:12;;;;;;;13.23;1.70;;;2.60;99.90;;;;;;5125254;27;20691;-78
2024/01/15 11:57:50;;;;;;;13.80;2.13;;;2.50;99.90;;;;;;5098112;27;20058;-78
2024/01/15 12:00:16;;;;;;;10.18;2.10;;;2.50;99.90;;;;;;5124243;27;20043;-78
2024/01/15 12:02:43;;;;;;;10.20;2.00;;;2.30;99.90;;;;;;5125020;27;20053;-78
2024/01/15 12:05:12;;;;;;;7.68;1.65;;;2.20;99.90;;;;;;5128754;27;20488;-78
2024/01/15 12:07:48;;;;;;;7.10;1.33;;;2.10;99.90;;;;;;5115360;27;20043;-78
2024/01/15 12:10:16;;;;;;;3.58;0.75;;;2.00;99.90;;;;;;5124303;27;20546;-79
2024/01/15 12:12:50;;;;;;;4.68;0.90;;;1.90;99.90;;;;;;5133681;27;20085;-79
2024/01/15 12:15:16;;;;;;;5.15;0.80;;;1.80;99.90;;;;;;5107629;27;20047;-79
2024/01/15 12:17:42;;;;;;;8.25;1.15;;;1.70;99.90;;;;;;5113043;27;20046;-78
2024/01/15 12:20:08;;;;;;;7.18;1.25;;;1.70;99.90;;;;;;5115872;27;20035;-78
2024/01/15 12:22:34;;;;;;;8.18;1.48;;;1.60;99.90;;;;;;5127739;27;20496;-77
2024/01/15 12:25:00;;;;;;;8.52;1.48;;;1.60;99.90;;;;;;5113517;27;20042;-78
2024/01/15 12:27:26;;;;;;;6.80;1.20;;;1.60;99.90;;;;;;5127615;27;20438;-78
2024/01/15 12:29:55;;;;;;;6.60;1.10;;;1.60;99.90;;;;;;5119496;27;20395;-72
2024/01/15 12:32:24;;;;;;;7.57;1.65;;;1.60;99.90;;;;;;5120625;27;20554;-72
2024/01/15 12:34:50;;;;;;;9.02;1.80;;;1.60;99.90;;;;;;5130547;27;20722;-72
2024/01/15 12:37:19;;;;;;;7.28;1.58;;;1.70;99.90;;;;;;5130436;27;20125;-72
2024/01/15 12:39:46;;;;;;;8.63;1.25;;;1.70;99.90;;;;;;5130300;27;20096;-71
2024/01/15 12:42:11;;;;;;;7.22;1.42;;;1.70;99.90;;;;;;5121609;27;20034;-72
2024/01/15 12:44:37;;;;;;;10.68;1.67;;;1.70;99.90;;;;;;5117048;27;20565;-72
2024/01/15 12:47:06;;;;;;;9.23;1.60;;;1.70;99.90;;;;;;5113475;27;20077;-71